createdAt,value
2023-04-14T00:02:00.933Z,2.05
2023-04-14T00:04:27.812Z,1.58
2023-04-14T00:06:58.301Z,1.70
2023-04-14T00:09:24.967Z,1.60
2023-04-14T00:11:52.078Z,1.50
2023-04-14T00:14:18.882Z,1.92
2023-04-14T00:16:46.762Z,1.80
2023-04-14T00:19:13.496Z,1.60
2023-04-14T00:21:40.439Z,1.60
2023-04-14T00:24:07.179Z,1.95
2023-04-14T00:26:34.111Z,1.80
2023-04-14T00:29:01.169Z,1.70
2023-04-14T00:31:28.145Z,1.60
2023-04-14T00:33:54.909Z,1.65
2023-04-14T00:36:21.707Z,1.42
2023-04-14T00:38:48.633Z,1.77
2023-04-14T00:41:15.349Z,2.10
2023-04-14T00:43:42.189Z,1.70
2023-04-14T00:46:10.164Z,1.88
2023-04-14T00:48:37.088Z,2.10
2023-04-14T00:51:04.277Z,1.35
2023-04-14T00:53:32.740Z,1.73
2023-04-14T00:56:00.058Z,1.50
2023-04-14T00:58:27.381Z,1.70
2023-04-14T01:00:55.608Z,1.30
2023-04-14T01:03:24.710Z,1.30
2023-04-14T01:05:51.885Z,1.20
2023-04-14T01:08:21.141Z,1.20
2023-04-14T01:10:59.807Z,1.50
2023-04-14T01:13:48.452Z,1.50
2023-04-14T01:16:28.823Z,1.23
2023-04-14T01:19:14.014Z,1.27
2023-04-14T01:21:47.130Z,1.63
2023-04-14T01:24:16.834Z,1.10
2023-04-14T01:26:45.420Z,1.30
2023-04-14T01:29:36.918Z,1.15
2023-04-14T01:32:06.034Z,1.15
2023-04-14T01:34:49.403Z,1.10
2023-04-14T01:37:18.400Z,1.20
2023-04-14T01:39:53.196Z,1.52
2023-04-14T01:42:25.284Z,1.40
2023-04-14T01:44:57.282Z,1.15
2023-04-14T01:47:26.259Z,1.30
2023-04-14T01:49:54.145Z,1.48
2023-04-14T01:52:22.417Z,1.67
2023-04-14T01:54:52.335Z,1.30
2023-04-14T01:57:22.776Z,1.50
2023-04-14T01:59:52.605Z,1.40
2023-04-14T02:02:21.259Z,1.52
2023-04-14T02:04:49.290Z,1.50
2023-04-14T02:07:18.432Z,1.15
2023-04-14T02:09:46.008Z,1.75
2023-04-14T02:12:12.962Z,1.30
2023-04-14T02:14:42.608Z,2.17
2023-04-14T02:17:13.932Z,1.65
2023-04-14T02:19:43.048Z,1.20
2023-04-14T02:22:10.078Z,1.13
2023-04-14T02:24:37.022Z,1.42
2023-04-14T02:27:38.171Z,1.63
2023-04-14T02:30:12.496Z,1.42
2023-04-14T02:32:44.506Z,1.95
2023-04-14T02:35:19.570Z,1.45
2023-04-14T02:37:51.883Z,1.42
2023-04-14T02:40:22.429Z,1.30
2023-04-14T02:42:56.816Z,1.50
2023-04-14T02:45:27.465Z,1.75
2023-04-14T02:50:36.610Z,1.70
2023-04-14T02:53:04.325Z,1.52
2023-04-14T02:55:31.969Z,1.20
2023-04-14T02:57:59.627Z,1.88
2023-04-14T03:00:27.304Z,1.65
2023-04-14T03:02:55.759Z,2.30
2023-04-14T03:05:23.284Z,1.48
2023-04-14T03:07:52.631Z,1.80
2023-04-14T03:10:20.406Z,1.80
2023-04-14T03:12:48.099Z,1.40
2023-04-14T03:15:17.365Z,1.50
2023-04-14T03:17:48.116Z,1.45
2023-04-14T03:20:20.040Z,1.48
2023-04-14T03:22:49.008Z,1.85
2023-04-14T03:25:16.113Z,2.55
2023-04-14T03:27:44.427Z,2.10
2023-04-14T03:30:14.450Z,2.08
2023-04-14T03:32:43.576Z,2.83
2023-04-14T03:35:12.980Z,3.00
2023-04-14T03:37:41.549Z,3.53
2023-04-14T03:40:08.783Z,3.35
2023-04-14T03:42:38.706Z,2.80
2023-04-14T03:45:06.411Z,3.90
2023-04-14T03:47:33.149Z,2.65
2023-04-14T03:50:02.800Z,2.35
2023-04-14T03:52:33.435Z,2.15
2023-04-14T03:55:06.201Z,1.90
2023-04-14T03:57:34.252Z,2.15
2023-04-14T04:00:04.970Z,2.58
2023-04-14T04:02:32.604Z,2.80
2023-04-14T04:05:00.977Z,2.58
2023-04-14T04:07:28.624Z,2.22
2023-04-14T04:09:57.006Z,3.03
2023-04-14T04:12:25.936Z,2.55
2023-04-14T04:14:52.737Z,3.15
2023-04-14T04:17:24.404Z,3.08
2023-04-14T04:19:53.065Z,3.50
2023-04-14T04:22:21.857Z,2.83
2023-04-14T04:24:49.822Z,3.60
2023-04-14T04:27:27.722Z,3.00
2023-04-14T04:29:56.037Z,3.13
2023-04-14T04:32:23.811Z,4.15
2023-04-14T04:34:51.432Z,3.20
2023-04-14T04:37:19.955Z,4.00
2023-04-14T04:39:48.592Z,3.20
2023-04-14T04:42:16.441Z,2.55
2023-04-14T04:44:43.351Z,3.40
2023-04-14T04:47:12.006Z,3.15
2023-04-14T04:49:38.746Z,3.00
2023-04-14T04:52:05.735Z,2.90
2023-04-14T04:54:33.036Z,2.90
2023-04-14T04:56:59.926Z,3.42
2023-04-14T04:59:26.721Z,3.67
2023-04-14T05:01:53.623Z,3.58
2023-04-14T05:04:20.555Z,3.65
2023-04-14T05:06:47.336Z,11.82
2023-04-14T05:09:14.064Z,15.27
2023-04-14T05:11:41.524Z,9.05
2023-04-14T05:14:08.296Z,7.07
2023-04-14T05:16:35.042Z,5.93
2023-04-14T05:19:03.000Z,4.60
2023-04-14T05:21:29.940Z,4.07
2023-04-14T05:23:56.709Z,4.20
2023-04-14T05:28:53.242Z,3.90
2023-04-14T05:31:20.521Z,4.82
2023-04-14T05:33:47.318Z,5.00
2023-04-14T05:36:14.131Z,5.70
2023-04-14T05:38:41.006Z,5.55
2023-04-14T05:41:07.814Z,3.88
2023-04-14T05:43:34.588Z,5.32
2023-04-14T05:46:01.740Z,6.03
2023-04-14T05:48:30.947Z,6.72
2023-04-14T05:50:58.159Z,8.95
2023-04-14T05:53:25.790Z,6.05
2023-04-14T05:55:53.218Z,6.63
2023-04-14T05:58:20.106Z,8.50
2023-04-14T06:00:47.099Z,6.50
2023-04-14T06:03:15.141Z,6.53
2023-04-14T06:05:42.127Z,6.93
2023-04-14T06:08:08.878Z,6.00
2023-04-14T06:10:35.865Z,6.53
2023-04-14T06:13:02.637Z,6.15
2023-04-14T06:15:29.835Z,6.22
2023-04-14T06:17:56.872Z,5.15
2023-04-14T06:20:23.744Z,4.72
2023-04-14T06:22:50.478Z,4.43
2023-04-14T06:25:17.367Z,4.55
2023-04-14T06:27:44.225Z,5.05
2023-04-14T06:30:11.796Z,3.97
2023-04-14T06:32:38.653Z,4.18
2023-04-14T06:35:05.740Z,3.85
2023-04-14T06:37:32.564Z,4.03
2023-04-14T06:39:59.279Z,3.93
2023-04-14T06:42:26.265Z,4.50
2023-04-14T06:44:52.984Z,4.00
2023-04-14T06:47:21.027Z,3.10
2023-04-14T06:49:47.924Z,3.83
2023-04-14T06:52:14.725Z,3.77
2023-04-14T06:54:42.308Z,4.20
2023-04-14T06:57:09.333Z,3.10
2023-04-14T06:59:37.483Z,3.10
2023-04-14T07:02:04.445Z,2.67
2023-04-14T07:04:31.224Z,2.97
2023-04-14T07:07:01.703Z,2.93
2023-04-14T07:09:29.304Z,3.23
2023-04-14T07:11:57.521Z,3.37
2023-04-14T07:14:24.911Z,2.70
2023-04-14T07:16:52.422Z,3.30
2023-04-14T07:19:19.739Z,3.40
2023-04-14T07:21:47.137Z,3.17
2023-04-14T07:24:15.512Z,2.60
2023-04-14T07:26:44.305Z,2.90
2023-04-14T07:29:11.992Z,2.30
2023-04-14T07:31:40.139Z,2.43
2023-04-14T07:34:07.787Z,3.03
2023-04-14T07:36:34.550Z,2.63
2023-04-14T07:39:01.658Z,2.93
2023-04-14T07:41:28.624Z,2.80
2023-04-14T07:43:59.317Z,2.67
2023-04-14T07:46:26.511Z,3.27
2023-04-14T07:48:53.723Z,2.90
2023-04-14T07:51:20.854Z,3.17
2023-04-14T07:53:47.713Z,2.63
2023-04-14T07:56:15.524Z,2.90
2023-04-14T07:58:42.260Z,2.80
2023-04-14T08:01:09.108Z,3.00
2023-04-14T08:03:37.636Z,2.57
2023-04-14T08:06:06.877Z,2.67
2023-04-14T08:08:35.034Z,2.83
2023-04-14T08:11:01.925Z,2.47
2023-04-14T08:13:28.710Z,2.67
2023-04-14T08:15:55.795Z,2.40
2023-04-14T08:18:22.630Z,3.00
2023-04-14T08:20:49.658Z,3.27
2023-04-14T08:23:16.632Z,2.43
2023-04-14T08:25:44.362Z,2.40
2023-04-14T08:28:11.317Z,2.90
2023-04-14T08:30:38.318Z,2.27
2023-04-14T08:33:05.258Z,2.53
2023-04-14T08:35:39.849Z,3.00
2023-04-14T08:38:08.382Z,2.77
2023-04-14T08:40:43.836Z,2.80
2023-04-14T08:43:15.339Z,2.60
2023-04-14T08:45:43.464Z,2.70
2023-04-14T08:48:11.898Z,2.50
2023-04-14T08:50:46.788Z,2.90
2023-04-14T08:53:13.933Z,2.60
2023-04-14T08:55:41.915Z,2.47
2023-04-14T08:58:12.076Z,2.40
2023-04-14T09:00:40.282Z,2.50
2023-04-14T09:03:09.314Z,2.37
2023-04-14T09:05:37.368Z,3.33
2023-04-14T09:08:05.579Z,2.60
2023-04-14T09:10:32.616Z,2.13
2023-04-14T09:13:00.206Z,3.00
2023-04-14T09:15:28.922Z,2.60
2023-04-14T09:17:56.464Z,2.10
2023-04-14T09:20:38.878Z,2.00
2023-04-14T09:23:12.194Z,2.57
2023-04-14T09:25:40.435Z,2.83
2023-04-14T09:28:07.328Z,2.27
2023-04-14T09:30:34.729Z,2.80
2023-04-14T09:33:08.165Z,2.70
2023-04-14T09:35:49.250Z,2.13
2023-04-14T09:38:31.498Z,2.20
2023-04-14T09:40:58.635Z,2.40
2023-04-14T09:43:27.363Z,1.90
2023-04-14T09:45:55.992Z,1.97
2023-04-14T09:48:22.844Z,2.33
2023-04-14T09:51:07.316Z,2.47
2023-04-14T09:53:38.326Z,2.40
2023-04-14T09:56:07.764Z,2.10
2023-04-14T09:58:39.403Z,2.67
2023-04-14T10:01:13.635Z,2.00
2023-04-14T10:03:44.574Z,2.60
2023-04-14T10:06:18.296Z,2.53
2023-04-14T10:08:50.015Z,2.40
2023-04-14T10:11:19.934Z,2.10
2023-04-14T10:13:49.245Z,2.20
2023-04-14T10:16:16.216Z,2.70
2023-04-14T10:18:44.261Z,1.97
2023-04-14T10:21:11.583Z,2.50
2023-04-14T10:23:40.246Z,2.90
2023-04-14T10:26:08.893Z,2.20
2023-04-14T10:28:37.623Z,2.37
2023-04-14T10:31:08.466Z,2.43
2023-04-14T10:33:38.110Z,2.10
2023-04-14T10:36:05.547Z,2.10
2023-04-14T10:38:38.786Z,2.30
2023-04-14T10:41:08.010Z,2.23
2023-04-14T10:43:36.840Z,2.00
2023-04-14T10:46:04.966Z,2.50
2023-04-14T10:48:36.683Z,2.20
2023-04-14T10:51:06.110Z,2.43
2023-04-14T10:53:45.723Z,2.10
2023-04-14T10:56:12.997Z,2.37
2023-04-14T10:58:40.206Z,2.40
2023-04-14T11:01:30.896Z,2.77
2023-04-14T11:04:11.580Z,1.43
2023-04-14T11:06:47.611Z,2.43
2023-04-14T11:09:38.297Z,2.13
2023-04-14T11:12:23.387Z,2.40
2023-04-14T11:14:50.478Z,2.10
2023-04-14T11:17:22.277Z,2.87
2023-04-14T11:19:53.235Z,2.57
2023-04-14T11:22:43.688Z,2.27
2023-04-14T11:25:19.706Z,2.57
2023-04-14T11:27:48.578Z,2.10
2023-04-14T11:30:17.521Z,2.10
2023-04-14T11:32:52.510Z,1.83
2023-04-14T11:35:21.124Z,2.23
2023-04-14T11:37:47.959Z,1.90
2023-04-14T11:40:16.001Z,1.97
2023-04-14T11:42:49.309Z,2.17
2023-04-14T11:45:16.195Z,2.03
2023-04-14T11:48:05.704Z,2.37
2023-04-14T11:50:36.163Z,2.30
2023-04-14T11:53:08.343Z,2.00
2023-04-14T11:55:35.430Z,2.00
2023-04-14T11:58:03.714Z,2.40
2023-04-14T12:00:30.751Z,2.30
2023-04-14T12:02:57.696Z,2.70
2023-04-14T12:05:30.094Z,2.20
2023-04-14T12:08:02.215Z,2.40
2023-04-14T12:10:29.146Z,1.90
2023-04-14T12:13:03.496Z,1.77
2023-04-14T12:15:32.613Z,1.87
2023-04-14T12:18:00.312Z,1.80
2023-04-14T12:20:27.930Z,1.80
2023-04-14T12:23:04.669Z,2.47
2023-04-14T12:25:33.023Z,1.93
2023-04-14T12:28:06.381Z,2.57
2023-04-14T12:30:34.595Z,1.97
2023-04-14T12:33:13.087Z,2.87
2023-04-14T12:35:40.874Z,2.77
2023-04-14T12:38:14.576Z,2.77
2023-04-14T12:40:47.028Z,3.43
2023-04-14T12:43:16.113Z,4.80
2023-04-14T12:45:48.135Z,3.00
2023-04-14T12:48:17.626Z,2.87
2023-04-14T12:50:45.023Z,3.17
2023-04-14T12:53:26.163Z,2.30
2023-04-14T12:56:10.391Z,2.20
2023-04-14T12:58:42.067Z,3.67
2023-04-14T13:01:10.317Z,3.47
2023-04-14T13:03:42.236Z,2.17
2023-04-14T13:06:10.856Z,2.00
2023-04-14T13:08:37.846Z,2.33
2023-04-14T13:11:04.767Z,2.33
2023-04-14T13:13:31.571Z,2.37
2023-04-14T13:16:12.832Z,2.20
2023-04-14T13:18:42.475Z,1.60
2023-04-14T13:21:09.966Z,1.97
2023-04-14T13:23:36.838Z,2.40
2023-04-14T13:26:03.808Z,2.40
2023-04-14T13:28:30.621Z,1.60
2023-04-14T13:30:57.974Z,1.87
2023-04-14T13:33:26.441Z,2.00
2023-04-14T13:35:55.391Z,2.47
2023-04-14T13:38:22.288Z,2.07
2023-04-14T13:40:49.020Z,2.87
2023-04-14T13:43:18.169Z,2.60
2023-04-14T13:45:45.230Z,1.93
2023-04-14T13:48:12.523Z,1.90
2023-04-14T13:50:39.351Z,1.67
2023-04-14T13:53:06.126Z,2.07
2023-04-14T13:55:35.350Z,1.80
2023-04-14T13:58:02.158Z,1.80
2023-04-14T14:00:28.943Z,2.63
2023-04-14T14:02:55.824Z,1.80
2023-04-14T14:05:22.763Z,1.93
2023-04-14T14:07:49.614Z,2.20
2023-04-14T14:10:16.315Z,1.77
2023-04-14T14:12:43.019Z,1.77
2023-04-14T14:15:10.545Z,2.13
2023-04-14T14:17:37.399Z,2.90
2023-04-14T14:20:04.514Z,2.33
2023-04-14T14:22:31.471Z,2.90
2023-04-14T14:25:10.807Z,2.07
2023-04-14T14:27:42.381Z,3.17
2023-04-14T14:30:09.646Z,2.63
2023-04-14T14:32:36.602Z,2.50
2023-04-14T14:35:04.293Z,2.70
2023-04-14T14:37:31.020Z,1.77
2023-04-14T14:39:57.970Z,2.20
2023-04-14T14:42:24.681Z,2.17
2023-04-14T14:44:51.511Z,2.40
2023-04-14T14:47:18.265Z,1.37
2023-04-14T14:49:56.564Z,3.10
2023-04-14T14:52:32.321Z,1.77
2023-04-14T14:54:59.289Z,2.30
2023-04-14T14:57:26.466Z,2.27
2023-04-14T14:59:53.504Z,2.10
2023-04-14T15:02:21.577Z,2.17
2023-04-14T15:04:48.863Z,2.80
2023-04-14T15:07:15.879Z,2.37
2023-04-14T15:09:42.799Z,2.50
2023-04-14T15:12:09.635Z,7.73
2023-04-14T15:14:36.409Z,3.43
2023-04-14T15:17:03.253Z,2.40
2023-04-14T15:19:30.038Z,1.80
2023-04-14T15:21:56.782Z,2.27
2023-04-14T15:24:23.530Z,1.70
2023-04-14T15:26:50.371Z,3.47
2023-04-14T15:29:17.220Z,8.00
2023-04-14T15:31:44.009Z,2.80
2023-04-14T15:34:10.892Z,1.63
2023-04-14T15:36:37.700Z,1.93
2023-04-14T15:39:04.425Z,2.03
2023-04-14T15:41:31.122Z,1.60
2023-04-14T15:43:58.165Z,1.70
2023-04-14T15:46:25.021Z,1.80
2023-04-14T15:48:51.821Z,1.77
2023-04-14T15:51:18.722Z,2.00
2023-04-14T15:53:45.495Z,1.70
2023-04-14T15:56:13.864Z,1.50
2023-04-14T15:58:40.639Z,1.73
2023-04-14T16:01:08.187Z,1.67
2023-04-14T16:03:35.976Z,1.83
2023-04-14T16:06:04.172Z,1.53
2023-04-14T16:08:30.983Z,1.80
2023-04-14T16:10:58.059Z,1.53
2023-04-14T16:13:24.899Z,1.47
2023-04-14T16:15:51.734Z,1.43
2023-04-14T16:18:18.440Z,1.93
2023-04-14T16:20:46.503Z,6.70
2023-04-14T16:23:13.194Z,3.30
2023-04-14T16:25:39.966Z,1.60
2023-04-14T16:28:06.702Z,1.73
2023-04-14T16:30:33.526Z,1.60
2023-04-14T16:33:00.320Z,1.63
2023-04-14T16:35:27.176Z,1.90
2023-04-14T16:37:53.903Z,1.60
2023-04-14T16:40:20.633Z,1.73
2023-04-14T16:42:47.790Z,1.60
2023-04-14T16:45:14.487Z,1.67
2023-04-14T16:47:41.348Z,1.77
2023-04-14T16:50:08.479Z,2.40
2023-04-14T16:52:35.713Z,1.60
2023-04-14T16:55:02.547Z,1.97
2023-04-14T16:57:29.322Z,2.13
2023-04-14T16:59:56.366Z,1.90
2023-04-14T17:02:23.247Z,1.67
2023-04-14T17:04:50.443Z,1.80
2023-04-14T17:07:17.374Z,1.80
2023-04-14T17:09:44.182Z,1.90
2023-04-14T17:12:10.967Z,2.03
2023-04-14T17:14:38.489Z,2.10
2023-04-14T17:17:05.206Z,1.40
2023-04-14T17:19:32.287Z,1.80
2023-04-14T17:21:59.448Z,1.50
2023-04-14T17:24:26.443Z,2.50
2023-04-14T17:26:53.527Z,5.40
2023-04-14T17:29:20.583Z,2.37
2023-04-14T17:31:48.344Z,2.47
2023-04-14T17:34:18.393Z,1.50
2023-04-14T17:36:45.629Z,1.57
2023-04-14T17:39:12.377Z,1.83
2023-04-14T17:41:39.161Z,1.70
2023-04-14T17:44:05.901Z,2.10
2023-04-14T17:46:35.294Z,1.43
2023-04-14T17:49:02.771Z,4.70
2023-04-14T17:51:31.371Z,2.07
2023-04-14T17:53:58.294Z,1.60
2023-04-14T17:56:25.627Z,2.30
2023-04-14T17:58:52.827Z,1.63
2023-04-14T18:01:19.764Z,1.53
2023-04-14T18:03:46.716Z,1.43
2023-04-14T18:06:13.583Z,1.80
2023-04-14T18:08:41.198Z,1.53
2023-04-14T18:11:09.916Z,1.60
2023-04-14T18:13:36.826Z,1.83
2023-04-14T18:16:04.474Z,5.53
2023-04-14T18:18:31.366Z,2.50
2023-04-14T18:20:58.126Z,1.93
2023-04-14T18:23:24.960Z,1.93
2023-04-14T18:28:31.881Z,1.77
2023-04-14T18:30:59.339Z,1.70
2023-04-14T18:33:27.158Z,1.70
2023-04-14T18:35:56.698Z,1.80
2023-04-14T18:38:24.863Z,1.93
2023-04-14T18:40:52.394Z,1.70
2023-04-14T18:43:19.286Z,1.60
2023-04-14T18:45:49.990Z,1.50
2023-04-14T18:48:17.155Z,2.10
2023-04-14T18:50:44.670Z,1.73
2023-04-14T18:53:12.098Z,2.30
2023-04-14T18:55:45.243Z,2.37
2023-04-14T18:58:13.033Z,1.77
2023-04-14T19:00:40.262Z,1.77
2023-04-14T19:03:08.594Z,2.43
2023-04-14T19:05:37.000Z,3.80
2023-04-14T19:08:04.688Z,4.60
2023-04-14T19:10:31.642Z,5.20
2023-04-14T19:12:58.456Z,3.93
2023-04-14T19:15:28.833Z,4.30
2023-04-14T19:17:56.217Z,4.00
2023-04-14T19:20:24.176Z,3.97
2023-04-14T19:22:51.190Z,4.80
2023-04-14T19:25:18.451Z,2.70
2023-04-14T19:27:45.231Z,2.30
2023-04-14T19:30:12.476Z,1.90
2023-04-14T19:32:39.728Z,2.67
2023-04-14T19:35:07.797Z,2.03
2023-04-14T19:37:35.233Z,2.70
2023-04-14T19:40:03.572Z,2.27
2023-04-14T19:42:30.318Z,2.17
2023-04-14T19:44:57.432Z,2.50
2023-04-14T19:47:24.316Z,2.47
2023-04-14T19:49:51.899Z,2.77
2023-04-14T19:52:22.193Z,2.70
2023-04-14T19:54:49.548Z,2.40
2023-04-14T19:57:16.720Z,2.13
2023-04-14T19:59:44.188Z,2.60
2023-04-14T20:02:13.095Z,2.77
2023-04-14T20:04:40.355Z,3.03
2023-04-14T20:07:07.418Z,2.67
2023-04-14T20:09:34.742Z,1.90
2023-04-14T20:12:02.427Z,2.23
2023-04-14T20:14:29.518Z,2.40
2023-04-14T20:16:56.879Z,2.30
2023-04-14T20:19:24.382Z,2.30
2023-04-14T20:21:51.166Z,5.20
2023-04-14T20:24:18.602Z,3.07
2023-04-14T20:26:45.563Z,5.63
2023-04-14T20:29:12.831Z,7.37
2023-04-14T20:31:41.609Z,4.83
2023-04-14T20:34:09.098Z,4.97
2023-04-14T20:36:37.391Z,4.27
2023-04-14T20:39:05.783Z,2.90
2023-04-14T20:41:34.635Z,2.53
2023-04-14T20:44:01.657Z,2.87
2023-04-14T20:46:28.887Z,2.40
2023-04-14T20:48:56.626Z,1.97
2023-04-14T20:51:23.561Z,2.67
2023-04-14T20:53:50.876Z,2.50
2023-04-14T20:56:17.939Z,2.87
2023-04-14T20:58:45.578Z,2.77
2023-04-14T21:01:12.686Z,4.47
2023-04-14T21:03:40.171Z,3.90
2023-04-14T21:06:07.150Z,3.90
2023-04-14T21:08:33.930Z,3.40
2023-04-14T21:11:16.063Z,5.00
2023-04-14T21:15:28.177Z,2.73
2023-04-14T21:16:30.932Z,2.33
2023-04-14T21:18:57.746Z,2.10
2023-04-14T21:21:24.639Z,2.40
2023-04-14T21:23:51.429Z,1.60
2023-04-14T21:26:18.447Z,2.63
2023-04-14T21:28:45.693Z,1.90
2023-04-14T21:31:12.516Z,3.85
2023-04-14T21:33:39.972Z,8.35
2023-04-14T21:36:07.066Z,2.53
2023-04-14T21:38:33.870Z,1.80
2023-04-14T21:41:00.850Z,2.00
2023-04-14T21:43:27.625Z,2.00
2023-04-14T21:45:54.738Z,2.20
2023-04-14T21:48:21.571Z,1.80
2023-04-14T21:50:48.381Z,2.30
2023-04-14T21:53:15.983Z,4.10
2023-04-14T21:55:42.880Z,2.63
2023-04-14T21:58:09.865Z,1.92
2023-04-14T22:00:37.180Z,2.10
2023-04-14T22:03:04.380Z,1.80
2023-04-14T22:05:31.336Z,2.17
2023-04-14T22:07:58.104Z,1.80
2023-04-14T22:10:31.783Z,2.10
2023-04-14T22:13:00.393Z,1.95
2023-04-14T22:15:27.543Z,2.30
2023-04-14T22:17:54.326Z,2.15
2023-04-14T22:20:23.238Z,2.22
2023-04-14T22:22:49.977Z,1.70
2023-04-14T22:25:16.836Z,2.00
2023-04-14T22:27:43.674Z,2.10
2023-04-14T22:30:11.635Z,1.73
2023-04-14T22:32:38.437Z,1.77
2023-04-14T22:35:05.591Z,1.80
2023-04-14T22:37:32.875Z,1.77
2023-04-14T22:40:02.245Z,2.00
2023-04-14T22:42:29.234Z,2.05
2023-04-14T22:44:55.964Z,1.90
2023-04-14T22:47:22.776Z,1.80
2023-04-14T22:49:50.808Z,2.25
2023-04-14T22:52:18.780Z,1.98
2023-04-14T22:54:45.888Z,2.05
2023-04-14T22:57:12.671Z,2.10
2023-04-14T22:59:39.394Z,1.90
2023-04-14T23:02:07.188Z,2.05
2023-04-14T23:04:34.115Z,2.20
2023-04-14T23:07:01.086Z,2.00
2023-04-14T23:09:30.440Z,1.77
2023-04-14T23:12:01.979Z,1.98
2023-04-14T23:14:28.796Z,2.75
2023-04-14T23:16:55.530Z,2.10
2023-04-14T23:19:22.331Z,2.40
2023-04-14T23:21:49.059Z,2.28
2023-04-14T23:24:15.826Z,2.80
2023-04-14T23:26:42.666Z,2.45
2023-04-14T23:29:09.506Z,2.13
2023-04-14T23:31:36.439Z,2.25
2023-04-14T23:34:03.284Z,2.08
2023-04-14T23:36:30.143Z,2.30
2023-04-14T23:38:57.217Z,2.40
2023-04-14T23:41:24.249Z,2.42
2023-04-14T23:43:51.263Z,2.10
2023-04-14T23:46:18.189Z,2.00
2023-04-14T23:48:45.046Z,2.20
2023-04-14T23:51:16.158Z,2.10
2023-04-14T23:53:43.671Z,2.60
2023-04-14T23:56:10.651Z,2.10
2023-04-14T23:58:37.737Z,2.75
